sensor_id;sensor_type;location;lat;lon;timestamp;P1;durP1;ratioP1;P2;durP2;ratioP2
4700;SDS011;8724;51.272;6.554;2023-02-18T00:01:39;8.40;;;7.70;;
4700;SDS011;8724;51.272;6.554;2023-02-18T00:04:08;9.93;;;8.30;;
4700;SDS011;8724;51.272;6.554;2023-02-18T00:06:38;6.97;;;6.40;;
4700;SDS011;8724;51.272;6.554;2023-02-18T00:09:06;8.93;;;8.13;;
4700;SDS011;8724;51.272;6.554;2023-02-18T00:11:35;8.47;;;7.67;;
4700;SDS011;8724;51.272;6.554;2023-02-18T00:14:05;7.70;;;6.97;;
4700;SDS011;8724;51.272;6.554;2023-02-18T00:16:39;8.77;;;7.97;;
4700;SDS011;8724;51.272;6.554;2023-02-18T00:19:09;8.40;;;7.40;;
4700;SDS011;8724;51.272;6.554;2023-02-18T00:21:41;9.13;;;8.30;;
4700;SDS011;8724;51.272;6.554;2023-02-18T00:24:10;8.27;;;7.20;;
4700;SDS011;8724;51.272;6.554;2023-02-18T00:26:41;8.37;;;7.50;;
4700;SDS011;8724;51.272;6.554;2023-02-18T00:29:10;7.97;;;7.27;;
4700;SDS011;8724;51.272;6.554;2023-02-18T00:31:40;10.90;;;8.50;;
4700;SDS011;8724;51.272;6.554;2023-02-18T00:34:09;10.43;;;8.90;;
4700;SDS011;8724;51.272;6.554;2023-02-18T00:36:38;9.27;;;7.93;;
4700;SDS011;8724;51.272;6.554;2023-02-18T00:39:10;10.00;;;7.80;;
4700;SDS011;8724;51.272;6.554;2023-02-18T00:41:39;8.23;;;7.43;;
4700;SDS011;8724;51.272;6.554;2023-02-18T00:44:09;8.60;;;7.83;;
4700;SDS011;8724;51.272;6.554;2023-02-18T00:46:39;8.70;;;7.80;;
4700;SDS011;8724;51.272;6.554;2023-02-18T00:49:07;8.53;;;7.83;;
4700;SDS011;8724;51.272;6.554;2023-02-18T00:51:36;8.17;;;7.37;;
4700;SDS011;8724;51.272;6.554;2023-02-18T00:54:07;7.97;;;7.20;;
4700;SDS011;8724;51.272;6.554;2023-02-18T00:56:36;7.77;;;7.03;;
4700;SDS011;8724;51.272;6.554;2023-02-18T00:59:04;8.33;;;7.17;;
4700;SDS011;8724;51.272;6.554;2023-02-18T01:01:32;7.20;;;6.60;;
4700;SDS011;8724;51.272;6.554;2023-02-18T01:04:01;7.47;;;6.63;;
4700;SDS011;8724;51.272;6.554;2023-02-18T01:06:30;5.70;;;5.30;;
4700;SDS011;8724;51.272;6.554;2023-02-18T01:09:02;7.07;;;6.37;;
4700;SDS011;8724;51.272;6.554;2023-02-18T01:11:33;7.33;;;6.73;;
4700;SDS011;8724;51.272;6.554;2023-02-18T01:14:01;6.30;;;5.80;;
4700;SDS011;8724;51.272;6.554;2023-02-18T01:16:29;6.53;;;5.93;;
4700;SDS011;8724;51.272;6.554;2023-02-18T01:18:58;6.10;;;5.60;;
4700;SDS011;8724;51.272;6.554;2023-02-18T01:21:26;8.13;;;6.30;;
4700;SDS011;8724;51.272;6.554;2023-02-18T01:23:55;6.33;;;5.73;;
4700;SDS011;8724;51.272;6.554;2023-02-18T01:26:25;6.57;;;5.93;;
4700;SDS011;8724;51.272;6.554;2023-02-18T01:28:54;7.03;;;5.50;;
4700;SDS011;8724;51.272;6.554;2023-02-18T01:31:23;6.87;;;6.27;;
4700;SDS011;8724;51.272;6.554;2023-02-18T01:33:52;6.07;;;5.57;;
4700;SDS011;8724;51.272;6.554;2023-02-18T01:36:21;6.43;;;5.83;;
4700;SDS011;8724;51.272;6.554;2023-02-18T01:38:53;5.67;;;5.13;;
4700;SDS011;8724;51.272;6.554;2023-02-18T01:41:22;5.43;;;5.00;;
4700;SDS011;8724;51.272;6.554;2023-02-18T01:46:44;5.57;;;5.07;;
4700;SDS011;8724;51.272;6.554;2023-02-18T01:49:14;6.13;;;5.53;;
4700;SDS011;8724;51.272;6.554;2023-02-18T01:51:46;5.40;;;4.90;;
4700;SDS011;8724;51.272;6.554;2023-02-18T01:54:20;5.83;;;5.33;;
4700;SDS011;8724;51.272;6.554;2023-02-18T01:56:54;5.33;;;4.83;;
4700;SDS011;8724;51.272;6.554;2023-02-18T01:59:29;5.30;;;4.90;;
4700;SDS011;8724;51.272;6.554;2023-02-18T02:02:00;4.60;;;4.20;;
4700;SDS011;8724;51.272;6.554;2023-02-18T02:04:28;5.10;;;4.67;;
4700;SDS011;8724;51.272;6.554;2023-02-18T02:06:57;4.67;;;4.27;;
4700;SDS011;8724;51.272;6.554;2023-02-18T02:09:27;5.00;;;4.50;;
4700;SDS011;8724;51.272;6.554;2023-02-18T02:15:04;4.77;;;4.37;;
4700;SDS011;8724;51.272;6.554;2023-02-18T02:17:48;5.10;;;4.60;;
4700;SDS011;8724;51.272;6.554;2023-02-18T02:20:37;5.03;;;4.53;;
4700;SDS011;8724;51.272;6.554;2023-02-18T02:29:48;6.30;;;5.63;;
4700;SDS011;8724;51.272;6.554;2023-02-18T02:32:35;5.83;;;5.33;;
4700;SDS011;8724;51.272;6.554;2023-02-18T02:35:27;6.90;;;6.30;;
4700;SDS011;8724;51.272;6.554;2023-02-18T02:38:00;6.20;;;5.60;;
4700;SDS011;8724;51.272;6.554;2023-02-18T02:40:35;6.20;;;5.60;;
4700;SDS011;8724;51.272;6.554;2023-02-18T02:43:14;6.57;;;6.07;;
4700;SDS011;8724;51.272;6.554;2023-02-18T02:45:50;5.80;;;5.30;;
4700;SDS011;8724;51.272;6.554;2023-02-18T02:48:24;5.93;;;5.37;;
4700;SDS011;8724;51.272;6.554;2023-02-18T02:51:03;6.77;;;6.07;;
4700;SDS011;8724;51.272;6.554;2023-02-18T02:53:35;6.97;;;6.37;;
4700;SDS011;8724;51.272;6.554;2023-02-18T02:56:08;9.17;;;7.70;;
4700;SDS011;8724;51.272;6.554;2023-02-18T02:58:40;8.60;;;7.70;;
4700;SDS011;8724;51.272;6.554;2023-02-18T03:01:16;8.70;;;7.87;;
4700;SDS011;8724;51.272;6.554;2023-02-18T03:03:57;8.63;;;7.87;;
4700;SDS011;8724;51.272;6.554;2023-02-18T03:06:53;9.10;;;8.30;;
4700;SDS011;8724;51.272;6.554;2023-02-18T03:09:41;9.43;;;8.40;;
4700;SDS011;8724;51.272;6.554;2023-02-18T03:12:22;8.60;;;7.70;;
4700;SDS011;8724;51.272;6.554;2023-02-18T03:14:57;8.90;;;8.00;;
4700;SDS011;8724;51.272;6.554;2023-02-18T03:17:35;9.90;;;9.00;;
4700;SDS011;8724;51.272;6.554;2023-02-18T03:20:09;11.10;;;9.43;;
4700;SDS011;8724;51.272;6.554;2023-02-18T03:22:43;9.17;;;8.27;;
4700;SDS011;8724;51.272;6.554;2023-02-18T03:25:15;13.50;;;10.00;;
4700;SDS011;8724;51.272;6.554;2023-02-18T03:27:45;10.77;;;9.23;;
4700;SDS011;8724;51.272;6.554;2023-02-18T03:30:20;10.47;;;9.47;;
4700;SDS011;8724;51.272;6.554;2023-02-18T03:32:54;9.20;;;8.20;;
4700;SDS011;8724;51.272;6.554;2023-02-18T03:35:26;9.80;;;8.80;;
4700;SDS011;8724;51.272;6.554;2023-02-18T03:37:58;9.17;;;8.30;;
4700;SDS011;8724;51.272;6.554;2023-02-18T03:40:30;8.13;;;7.33;;
4700;SDS011;8724;51.272;6.554;2023-02-18T03:43:00;8.53;;;7.63;;
4700;SDS011;8724;51.272;6.554;2023-02-18T03:45:28;8.60;;;7.73;;
4700;SDS011;8724;51.272;6.554;2023-02-18T03:47:57;10.63;;;7.70;;
4700;SDS011;8724;51.272;6.554;2023-02-18T03:50:26;9.40;;;7.37;;
4700;SDS011;8724;51.272;6.554;2023-02-18T03:52:54;8.27;;;6.77;;
4700;SDS011;8724;51.272;6.554;2023-02-18T03:55:24;7.30;;;6.63;;
4700;SDS011;8724;51.272;6.554;2023-02-18T03:57:52;6.47;;;5.70;;
4700;SDS011;8724;51.272;6.554;2023-02-18T04:00:20;6.30;;;5.27;;
4700;SDS011;8724;51.272;6.554;2023-02-18T04:02:49;5.57;;;5.07;;
4700;SDS011;8724;51.272;6.554;2023-02-18T04:05:17;5.30;;;4.80;;
4700;SDS011;8724;51.272;6.554;2023-02-18T04:07:46;5.13;;;4.63;;
4700;SDS011;8724;51.272;6.554;2023-02-18T04:10:14;5.10;;;4.70;;
4700;SDS011;8724;51.272;6.554;2023-02-18T04:12:44;4.43;;;4.03;;
4700;SDS011;8724;51.272;6.554;2023-02-18T04:15:12;3.23;;;3.03;;
4700;SDS011;8724;51.272;6.554;2023-02-18T04:17:40;4.30;;;3.30;;
4700;SDS011;8724;51.272;6.554;2023-02-18T04:20:09;3.13;;;2.83;;
4700;SDS011;8724;51.272;6.554;2023-02-18T04:22:38;2.50;;;2.30;;
4700;SDS011;8724;51.272;6.554;2023-02-18T04:25:07;2.23;;;2.07;;
4700;SDS011;8724;51.272;6.554;2023-02-18T04:27:35;2.30;;;2.20;;
4700;SDS011;8724;51.272;6.554;2023-02-18T04:30:06;1.67;;;1.57;;
4700;SDS011;8724;51.272;6.554;2023-02-18T04:32:35;1.50;;;1.40;;
4700;SDS011;8724;51.272;6.554;2023-02-18T04:35:05;1.87;;;1.20;;
4700;SDS011;8724;51.272;6.554;2023-02-18T04:37:34;1.53;;;1.23;;
4700;SDS011;8724;51.272;6.554;2023-02-18T04:40:09;1.00;;;1.00;;
4700;SDS011;8724;51.272;6.554;2023-02-18T04:42:41;0.80;;;0.80;;
4700;SDS011;8724;51.272;6.554;2023-02-18T04:45:11;0.97;;;0.97;;
4700;SDS011;8724;51.272;6.554;2023-02-18T04:53:31;1.10;;;1.10;;
4700;SDS011;8724;51.272;6.554;2023-02-18T04:56:00;1.10;;;1.10;;
4700;SDS011;8724;51.272;6.554;2023-02-18T04:58:54;1.03;;;1.03;;
4700;SDS011;8724;51.272;6.554;2023-02-18T05:01:25;0.93;;;0.93;;
4700;SDS011;8724;51.272;6.554;2023-02-18T05:03:55;1.43;;;1.17;;
4700;SDS011;8724;51.272;6.554;2023-02-18T05:06:29;1.13;;;1.03;;
4700;SDS011;8724;51.272;6.554;2023-02-18T05:08:58;1.37;;;1.20;;
4700;SDS011;8724;51.272;6.554;2023-02-18T05:11:30;0.83;;;0.83;;
4700;SDS011;8724;51.272;6.554;2023-02-18T05:13:59;1.27;;;1.00;;
4700;SDS011;8724;51.272;6.554;2023-02-18T05:16:30;11.47;;;7.60;;
4700;SDS011;8724;51.272;6.554;2023-02-18T05:19:11;25.43;;;20.73;;
4700;SDS011;8724;51.272;6.554;2023-02-18T05:21:45;14.63;;;12.17;;
4700;SDS011;8724;51.272;6.554;2023-02-18T05:24:19;23.77;;;18.70;;
4700;SDS011;8724;51.272;6.554;2023-02-18T05:26:49;9.33;;;6.97;;
4700;SDS011;8724;51.272;6.554;2023-02-18T05:29:18;2.50;;;2.30;;
4700;SDS011;8724;51.272;6.554;2023-02-18T05:31:48;1.30;;;1.20;;
4700;SDS011;8724;51.272;6.554;2023-02-18T05:34:17;1.20;;;1.20;;
4700;SDS011;8724;51.272;6.554;2023-02-18T05:36:48;0.93;;;0.93;;
4700;SDS011;8724;51.272;6.554;2023-02-18T05:39:19;1.20;;;1.20;;
4700;SDS011;8724;51.272;6.554;2023-02-18T05:41:47;2.67;;;1.20;;
4700;SDS011;8724;51.272;6.554;2023-02-18T05:44:16;1.50;;;1.40;;
4700;SDS011;8724;51.272;6.554;2023-02-18T05:47:07;0.90;;;0.90;;
4700;SDS011;8724;51.272;6.554;2023-02-18T05:49:46;1.00;;;1.00;;
4700;SDS011;8724;51.272;6.554;2023-02-18T05:52:38;1.83;;;1.17;;
4700;SDS011;8724;51.272;6.554;2023-02-18T05:55:13;1.40;;;1.30;;
4700;SDS011;8724;51.272;6.554;2023-02-18T05:57:42;1.13;;;1.13;;
4700;SDS011;8724;51.272;6.554;2023-02-18T06:00:15;1.47;;;1.37;;
4700;SDS011;8724;51.272;6.554;2023-02-18T06:02:49;1.67;;;1.57;;
4700;SDS011;8724;51.272;6.554;2023-02-18T06:05:23;1.40;;;1.30;;
4700;SDS011;8724;51.272;6.554;2023-02-18T06:07:55;1.60;;;1.50;;
4700;SDS011;8724;51.272;6.554;2023-02-18T06:10:25;1.67;;;1.57;;
4700;SDS011;8724;51.272;6.554;2023-02-18T06:12:56;1.83;;;1.73;;
4700;SDS011;8724;51.272;6.554;2023-02-18T06:15:32;23.50;;;18.77;;
4700;SDS011;8724;51.272;6.554;2023-02-18T06:18:05;13.67;;;12.17;;
4700;SDS011;8724;51.272;6.554;2023-02-18T06:20:39;4.70;;;4.30;;
4700;SDS011;8724;51.272;6.554;2023-02-18T06:23:11;2.07;;;1.97;;
4700;SDS011;8724;51.272;6.554;2023-02-18T06:25:44;2.23;;;2.03;;
4700;SDS011;8724;51.272;6.554;2023-02-18T06:28:17;1.77;;;1.67;;
4700;SDS011;8724;51.272;6.554;2023-02-18T06:30:48;1.60;;;1.50;;
4700;SDS011;8724;51.272;6.554;2023-02-18T06:33:27;1.40;;;1.40;;
4700;SDS011;8724;51.272;6.554;2023-02-18T06:36:04;1.90;;;1.80;;
4700;SDS011;8724;51.272;6.554;2023-02-18T06:38:41;1.70;;;1.60;;
4700;SDS011;8724;51.272;6.554;2023-02-18T06:41:17;2.97;;;1.57;;
4700;SDS011;8724;51.272;6.554;2023-02-18T06:43:47;1.90;;;1.70;;
4700;SDS011;8724;51.272;6.554;2023-02-18T06:46:17;1.30;;;1.30;;
4700;SDS011;8724;51.272;6.554;2023-02-18T06:48:47;1.60;;;1.50;;
4700;SDS011;8724;51.272;6.554;2023-02-18T06:51:18;1.80;;;1.50;;
4700;SDS011;8724;51.272;6.554;2023-02-18T06:53:51;1.70;;;1.60;;
4700;SDS011;8724;51.272;6.554;2023-02-18T06:56:25;1.20;;;1.20;;
4700;SDS011;8724;51.272;6.554;2023-02-18T06:58:59;1.20;;;1.10;;
4700;SDS011;8724;51.272;6.554;2023-02-18T07:01:28;1.20;;;1.10;;
4700;SDS011;8724;51.272;6.554;2023-02-18T07:03:58;8.67;;;4.97;;
4700;SDS011;8724;51.272;6.554;2023-02-18T07:06:26;19.60;;;14.40;;
4700;SDS011;8724;51.272;6.554;2023-02-18T07:08:55;5.80;;;5.27;;
4700;SDS011;8724;51.272;6.554;2023-02-18T07:11:24;1.87;;;1.77;;
4700;SDS011;8724;51.272;6.554;2023-02-18T07:13:52;1.20;;;1.10;;
4700;SDS011;8724;51.272;6.554;2023-02-18T07:16:20;1.20;;;1.10;;
4700;SDS011;8724;51.272;6.554;2023-02-18T07:18:49;0.87;;;0.87;;
4700;SDS011;8724;51.272;6.554;2023-02-18T07:21:19;1.00;;;1.00;;
4700;SDS011;8724;51.272;6.554;2023-02-18T07:23:47;0.90;;;0.90;;
4700;SDS011;8724;51.272;6.554;2023-02-18T07:26:16;0.97;;;0.87;;
4700;SDS011;8724;51.272;6.554;2023-02-18T07:28:44;0.90;;;0.90;;
4700;SDS011;8724;51.272;6.554;2023-02-18T07:31:13;1.00;;;0.80;;
4700;SDS011;8724;51.272;6.554;2023-02-18T07:33:41;1.13;;;1.10;;
4700;SDS011;8724;51.272;6.554;2023-02-18T07:36:10;1.03;;;0.90;;
4700;SDS011;8724;51.272;6.554;2023-02-18T07:38:39;0.90;;;0.90;;
4700;SDS011;8724;51.272;6.554;2023-02-18T07:41:11;1.13;;;1.03;;
4700;SDS011;8724;51.272;6.554;2023-02-18T07:43:44;1.00;;;1.00;;
4700;SDS011;8724;51.272;6.554;2023-02-18T07:46:13;2.30;;;1.00;;
4700;SDS011;8724;51.272;6.554;2023-02-18T07:48:41;1.37;;;1.30;;
4700;SDS011;8724;51.272;6.554;2023-02-18T07:51:10;1.33;;;1.00;;
4700;SDS011;8724;51.272;6.554;2023-02-18T07:53:41;1.27;;;1.00;;
4700;SDS011;8724;51.272;6.554;2023-02-18T07:56:09;1.30;;;1.20;;
4700;SDS011;8724;51.272;6.554;2023-02-18T07:58:38;7.00;;;3.70;;
4700;SDS011;8724;51.272;6.554;2023-02-18T08:01:07;11.17;;;8.33;;
4700;SDS011;8724;51.272;6.554;2023-02-18T08:03:37;2.30;;;1.63;;
4700;SDS011;8724;51.272;6.554;2023-02-18T08:06:06;1.10;;;1.00;;
4700;SDS011;8724;51.272;6.554;2023-02-18T08:08:36;1.47;;;1.00;;
4700;SDS011;8724;51.272;6.554;2023-02-18T08:11:06;1.20;;;1.10;;
4700;SDS011;8724;51.272;6.554;2023-02-18T08:13:44;3.53;;;1.57;;
4700;SDS011;8724;51.272;6.554;2023-02-18T08:16:13;3.50;;;1.63;;
4700;SDS011;8724;51.272;6.554;2023-02-18T08:18:41;4.40;;;1.53;;
4700;SDS011;8724;51.272;6.554;2023-02-18T08:21:10;5.23;;;1.93;;
4700;SDS011;8724;51.272;6.554;2023-02-18T08:23:39;4.87;;;1.50;;
4700;SDS011;8724;51.272;6.554;2023-02-18T08:26:09;4.37;;;1.77;;
4700;SDS011;8724;51.272;6.554;2023-02-18T08:28:40;7.23;;;1.50;;
4700;SDS011;8724;51.272;6.554;2023-02-18T08:31:14;4.40;;;1.83;;
4700;SDS011;8724;51.272;6.554;2023-02-18T08:33:44;2.70;;;1.50;;
4700;SDS011;8724;51.272;6.554;2023-02-18T08:36:15;2.60;;;1.13;;
4700;SDS011;8724;51.272;6.554;2023-02-18T08:38:44;4.77;;;1.60;;
4700;SDS011;8724;51.272;6.554;2023-02-18T08:41:14;3.47;;;1.77;;
4700;SDS011;8724;51.272;6.554;2023-02-18T08:43:44;4.20;;;1.73;;
4700;SDS011;8724;51.272;6.554;2023-02-18T08:46:13;6.43;;;1.93;;
4700;SDS011;8724;51.272;6.554;2023-02-18T08:49:01;5.40;;;1.83;;
4700;SDS011;8724;51.272;6.554;2023-02-18T08:51:30;4.10;;;1.83;;
4700;SDS011;8724;51.272;6.554;2023-02-18T08:53:59;5.23;;;1.60;;
4700;SDS011;8724;51.272;6.554;2023-02-18T08:56:29;4.73;;;2.00;;
4700;SDS011;8724;51.272;6.554;2023-02-18T08:58:59;9.23;;;3.40;;
4700;SDS011;8724;51.272;6.554;2023-02-18T09:01:27;4.60;;;2.10;;
4700;SDS011;8724;51.272;6.554;2023-02-18T09:03:55;10.73;;;1.80;;
4700;SDS011;8724;51.272;6.554;2023-02-18T09:06:24;7.43;;;1.50;;
4700;SDS011;8724;51.272;6.554;2023-02-18T09:08:53;6.30;;;2.37;;
4700;SDS011;8724;51.272;6.554;2023-02-18T09:11:21;5.87;;;2.37;;
4700;SDS011;8724;51.272;6.554;2023-02-18T09:13:51;4.80;;;1.50;;
4700;SDS011;8724;51.272;6.554;2023-02-18T09:16:20;9.10;;;2.13;;
4700;SDS011;8724;51.272;6.554;2023-02-18T09:18:51;9.50;;;1.90;;
4700;SDS011;8724;51.272;6.554;2023-02-18T09:21:20;27.10;;;17.70;;
4700;SDS011;8724;51.272;6.554;2023-02-18T09:23:50;29.73;;;19.00;;
4700;SDS011;8724;51.272;6.554;2023-02-18T09:26:19;12.20;;;6.07;;
4700;SDS011;8724;51.272;6.554;2023-02-18T09:28:49;5.53;;;2.70;;
4700;SDS011;8724;51.272;6.554;2023-02-18T09:31:20;5.00;;;2.50;;
4700;SDS011;8724;51.272;6.554;2023-02-18T09:33:52;8.73;;;2.30;;
4700;SDS011;8724;51.272;6.554;2023-02-18T09:36:22;9.40;;;1.70;;
4700;SDS011;8724;51.272;6.554;2023-02-18T09:38:51;8.47;;;2.03;;
4700;SDS011;8724;51.272;6.554;2023-02-18T09:41:24;5.20;;;1.77;;
4700;SDS011;8724;51.272;6.554;2023-02-18T09:43:58;5.80;;;2.23;;
4700;SDS011;8724;51.272;6.554;2023-02-18T09:46:31;10.77;;;3.27;;
4700;SDS011;8724;51.272;6.554;2023-02-18T09:49:03;8.07;;;3.60;;
4700;SDS011;8724;51.272;6.554;2023-02-18T09:51:39;9.70;;;2.43;;
4700;SDS011;8724;51.272;6.554;2023-02-18T09:54:08;5.00;;;2.30;;
4700;SDS011;8724;51.272;6.554;2023-02-18T09:56:37;6.50;;;2.23;;
4700;SDS011;8724;51.272;6.554;2023-02-18T09:59:10;4.73;;;2.13;;
4700;SDS011;8724;51.272;6.554;2023-02-18T10:01:43;8.97;;;2.50;;
4700;SDS011;8724;51.272;6.554;2023-02-18T10:04:14;4.43;;;2.20;;
4700;SDS011;8724;51.272;6.554;2023-02-18T10:06:46;7.57;;;2.27;;
4700;SDS011;8724;51.272;6.554;2023-02-18T10:09:18;4.50;;;2.10;;
4700;SDS011;8724;51.272;6.554;2023-02-18T10:11:49;3.77;;;1.47;;
4700;SDS011;8724;51.272;6.554;2023-02-18T10:14:19;8.90;;;2.20;;
4700;SDS011;8724;51.272;6.554;2023-02-18T10:16:49;8.97;;;2.13;;
4700;SDS011;8724;51.272;6.554;2023-02-18T10:19:20;5.60;;;2.37;;
4700;SDS011;8724;51.272;6.554;2023-02-18T10:21:52;7.73;;;2.23;;
4700;SDS011;8724;51.272;6.554;2023-02-18T10:24:25;9.03;;;3.57;;
4700;SDS011;8724;51.272;6.554;2023-02-18T10:26:56;6.27;;;2.63;;
4700;SDS011;8724;51.272;6.554;2023-02-18T10:29:26;9.50;;;2.50;;
4700;SDS011;8724;51.272;6.554;2023-02-18T10:32:02;9.23;;;2.30;;
4700;SDS011;8724;51.272;6.554;2023-02-18T10:34:38;7.03;;;2.00;;
4700;SDS011;8724;51.272;6.554;2023-02-18T10:37:14;5.40;;;2.10;;
4700;SDS011;8724;51.272;6.554;2023-02-18T10:39:58;7.87;;;2.40;;
4700;SDS011;8724;51.272;6.554;2023-02-18T10:42:42;8.30;;;2.50;;
4700;SDS011;8724;51.272;6.554;2023-02-18T10:45:23;9.37;;;2.23;;
4700;SDS011;8724;51.272;6.554;2023-02-18T10:48:13;3.93;;;1.97;;
4700;SDS011;8724;51.272;6.554;2023-02-18T10:50:53;6.20;;;2.83;;
4700;SDS011;8724;51.272;6.554;2023-02-18T10:53:24;6.00;;;2.17;;
4700;SDS011;8724;51.272;6.554;2023-02-18T10:56:04;3.43;;;1.60;;
4700;SDS011;8724;51.272;6.554;2023-02-18T10:58:35;7.07;;;2.63;;
4700;SDS011;8724;51.272;6.554;2023-02-18T11:01:12;7.77;;;2.07;;
4700;SDS011;8724;51.272;6.554;2023-02-18T11:03:49;6.57;;;2.20;;
4700;SDS011;8724;51.272;6.554;2023-02-18T11:06:30;3.97;;;1.70;;
4700;SDS011;8724;51.272;6.554;2023-02-18T11:09:00;6.27;;;2.40;;
4700;SDS011;8724;51.272;6.554;2023-02-18T11:11:30;6.87;;;1.90;;
4700;SDS011;8724;51.272;6.554;2023-02-18T11:14:04;20.70;;;12.67;;
4700;SDS011;8724;51.272;6.554;2023-02-18T11:16:37;11.40;;;5.10;;
4700;SDS011;8724;51.272;6.554;2023-02-18T11:19:22;6.37;;;2.20;;
4700;SDS011;8724;51.272;6.554;2023-02-18T11:22:05;5.77;;;2.43;;
4700;SDS011;8724;51.272;6.554;2023-02-18T11:24:41;2.77;;;1.73;;
4700;SDS011;8724;51.272;6.554;2023-02-18T11:27:17;3.90;;;1.80;;
4700;SDS011;8724;51.272;6.554;2023-02-18T11:29:51;3.27;;;1.57;;
4700;SDS011;8724;51.272;6.554;2023-02-18T11:32:24;4.10;;;1.80;;
4700;SDS011;8724;51.272;6.554;2023-02-18T11:34:55;4.57;;;1.80;;
4700;SDS011;8724;51.272;6.554;2023-02-18T11:37:24;2.63;;;1.60;;
4700;SDS011;8724;51.272;6.554;2023-02-18T11:39:53;5.63;;;2.10;;
4700;SDS011;8724;51.272;6.554;2023-02-18T11:42:23;5.07;;;2.20;;
4700;SDS011;8724;51.272;6.554;2023-02-18T11:44:54;5.50;;;2.20;;
4700;SDS011;8724;51.272;6.554;2023-02-18T11:47:26;4.53;;;1.63;;
4700;SDS011;8724;51.272;6.554;2023-02-18T11:50:00;6.63;;;2.60;;
4700;SDS011;8724;51.272;6.554;2023-02-18T11:52:44;4.70;;;2.07;;
4700;SDS011;8724;51.272;6.554;2023-02-18T11:55:15;3.70;;;1.60;;
4700;SDS011;8724;51.272;6.554;2023-02-18T11:57:47;6.40;;;2.47;;
4700;SDS011;8724;51.272;6.554;2023-02-18T12:00:22;15.00;;;9.00;;
4700;SDS011;8724;51.272;6.554;2023-02-18T12:03:05;7.07;;;4.30;;
4700;SDS011;8724;51.272;6.554;2023-02-18T12:05:42;4.17;;;1.93;;
4700;SDS011;8724;51.272;6.554;2023-02-18T12:08:14;4.00;;;1.87;;
4700;SDS011;8724;51.272;6.554;2023-02-18T12:10:52;2.40;;;1.63;;
4700;SDS011;8724;51.272;6.554;2023-02-18T12:13:26;4.80;;;1.90;;
4700;SDS011;8724;51.272;6.554;2023-02-18T12:16:03;4.37;;;2.07;;
4700;SDS011;8724;51.272;6.554;2023-02-18T12:18:53;4.80;;;1.50;;
4700;SDS011;8724;51.272;6.554;2023-02-18T12:21:43;4.70;;;1.87;;
4700;SDS011;8724;51.272;6.554;2023-02-18T12:24:27;1.77;;;1.20;;
4700;SDS011;8724;51.272;6.554;2023-02-18T12:27:13;4.30;;;1.63;;
4700;SDS011;8724;51.272;6.554;2023-02-18T12:29:51;3.70;;;1.53;;
4700;SDS011;8724;51.272;6.554;2023-02-18T12:32:36;4.43;;;1.53;;
4700;SDS011;8724;51.272;6.554;2023-02-18T12:35:15;4.40;;;1.40;;
4700;SDS011;8724;51.272;6.554;2023-02-18T12:41:03;3.80;;;1.80;;
4700;SDS011;8724;51.272;6.554;2023-02-18T12:43:56;2.70;;;1.60;;
4700;SDS011;8724;51.272;6.554;2023-02-18T12:46:34;4.17;;;1.80;;
4700;SDS011;8724;51.272;6.554;2023-02-18T12:49:22;2.57;;;1.63;;
4700;SDS011;8724;51.272;6.554;2023-02-18T12:52:07;4.53;;;1.90;;
4700;SDS011;8724;51.272;6.554;2023-02-18T12:55:01;1.50;;;1.40;;
4700;SDS011;8724;51.272;6.554;2023-02-18T12:57:51;2.73;;;1.97;;
4700;SDS011;8724;51.272;6.554;2023-02-18T13:06:17;2.87;;;2.10;;
4700;SDS011;8724;51.272;6.554;2023-02-18T13:09:01;5.10;;;1.80;;
4700;SDS011;8724;51.272;6.554;2023-02-18T13:11:40;3.20;;;1.60;;
4700;SDS011;8724;51.272;6.554;2023-02-18T13:14:17;2.30;;;1.70;;
4700;SDS011;8724;51.272;6.554;2023-02-18T13:16:49;3.80;;;1.70;;
4700;SDS011;8724;51.272;6.554;2023-02-18T13:19:20;2.80;;;1.70;;
4700;SDS011;8724;51.272;6.554;2023-02-18T13:21:52;2.80;;;1.60;;
4700;SDS011;8724;51.272;6.554;2023-02-18T13:24:28;2.07;;;1.87;;
4700;SDS011;8724;51.272;6.554;2023-02-18T13:27:04;3.60;;;1.80;;
4700;SDS011;8724;51.272;6.554;2023-02-18T13:29:43;4.00;;;1.40;;
4700;SDS011;8724;51.272;6.554;2023-02-18T13:32:19;2.70;;;2.00;;
4700;SDS011;8724;51.272;6.554;2023-02-18T13:34:55;5.60;;;1.90;;
4700;SDS011;8724;51.272;6.554;2023-02-18T13:37:32;18.40;;;13.00;;
4700;SDS011;8724;51.272;6.554;2023-02-18T13:40:08;14.97;;;11.20;;
4700;SDS011;8724;51.272;6.554;2023-02-18T13:42:47;7.90;;;4.40;;
4700;SDS011;8724;51.272;6.554;2023-02-18T13:45:21;7.17;;;3.00;;
4700;SDS011;8724;51.272;6.554;2023-02-18T13:47:53;4.00;;;2.97;;
4700;SDS011;8724;51.272;6.554;2023-02-18T13:50:24;4.13;;;2.17;;
4700;SDS011;8724;51.272;6.554;2023-02-18T13:53:10;3.43;;;2.67;;
4700;SDS011;8724;51.272;6.554;2023-02-18T13:55:53;6.10;;;2.50;;
4700;SDS011;8724;51.272;6.554;2023-02-18T13:58:28;7.23;;;3.20;;
4700;SDS011;8724;51.272;6.554;2023-02-18T14:01:03;5.47;;;2.77;;
4700;SDS011;8724;51.272;6.554;2023-02-18T14:03:51;3.10;;;2.90;;
4700;SDS011;8724;51.272;6.554;2023-02-18T14:06:23;4.30;;;2.87;;
4700;SDS011;8724;51.272;6.554;2023-02-18T14:12:14;7.80;;;3.70;;
4700;SDS011;8724;51.272;6.554;2023-02-18T14:14:56;4.80;;;2.60;;
4700;SDS011;8724;51.272;6.554;2023-02-18T14:17:33;6.63;;;3.60;;
4700;SDS011;8724;51.272;6.554;2023-02-18T14:22:59;6.33;;;3.40;;
4700;SDS011;8724;51.272;6.554;2023-02-18T14:25:35;5.77;;;3.30;;
4700;SDS011;8724;51.272;6.554;2023-02-18T14:31:18;7.17;;;4.40;;
4700;SDS011;8724;51.272;6.554;2023-02-18T14:36:59;3.30;;;3.00;;
4700;SDS011;8724;51.272;6.554;2023-02-18T14:39:41;4.10;;;2.80;;
4700;SDS011;8724;51.272;6.554;2023-02-18T14:42:21;5.30;;;3.10;;
4700;SDS011;8724;51.272;6.554;2023-02-18T14:45:03;8.13;;;3.93;;
4700;SDS011;8724;51.272;6.554;2023-02-18T14:47:47;4.63;;;2.73;;
4700;SDS011;8724;51.272;6.554;2023-02-18T14:50:31;2.60;;;2.40;;
4700;SDS011;8724;51.272;6.554;2023-02-18T14:53:02;8.23;;;3.60;;
4700;SDS011;8724;51.272;6.554;2023-02-18T14:55:33;2.90;;;2.50;;
4700;SDS011;8724;51.272;6.554;2023-02-18T14:58:04;3.73;;;2.30;;
4700;SDS011;8724;51.272;6.554;2023-02-18T15:00:40;3.23;;;2.40;;
4700;SDS011;8724;51.272;6.554;2023-02-18T15:03:12;5.10;;;3.30;;
4700;SDS011;8724;51.272;6.554;2023-02-18T15:05:41;7.83;;;3.13;;
4700;SDS011;8724;51.272;6.554;2023-02-18T15:08:13;2.40;;;2.17;;
4700;SDS011;8724;51.272;6.554;2023-02-18T15:10:43;4.10;;;2.37;;
4700;SDS011;8724;51.272;6.554;2023-02-18T15:13:17;2.40;;;2.07;;
4700;SDS011;8724;51.272;6.554;2023-02-18T15:15:49;2.33;;;2.10;;
4700;SDS011;8724;51.272;6.554;2023-02-18T15:18:24;3.03;;;2.73;;
4700;SDS011;8724;51.272;6.554;2023-02-18T15:20:58;2.83;;;2.60;;
4700;SDS011;8724;51.272;6.554;2023-02-18T15:23:33;14.77;;;11.47;;
4700;SDS011;8724;51.272;6.554;2023-02-18T15:26:03;20.03;;;15.13;;
4700;SDS011;8724;51.272;6.554;2023-02-18T15:28:40;10.40;;;7.43;;
4700;SDS011;8724;51.272;6.554;2023-02-18T15:31:23;3.73;;;3.37;;
4700;SDS011;8724;51.272;6.554;2023-02-18T15:33:55;3.47;;;3.17;;
4700;SDS011;8724;51.272;6.554;2023-02-18T15:36:24;7.17;;;3.00;;
4700;SDS011;8724;51.272;6.554;2023-02-18T15:38:55;4.80;;;2.93;;
4700;SDS011;8724;51.272;6.554;2023-02-18T15:41:24;2.40;;;2.20;;
4700;SDS011;8724;51.272;6.554;2023-02-18T15:43:54;3.90;;;2.87;;
4700;SDS011;8724;51.272;6.554;2023-02-18T15:46:26;5.20;;;2.77;;
4700;SDS011;8724;51.272;6.554;2023-02-18T15:48:58;3.20;;;2.90;;
4700;SDS011;8724;51.272;6.554;2023-02-18T15:51:28;6.43;;;3.23;;
4700;SDS011;8724;51.272;6.554;2023-02-18T15:53:58;4.03;;;2.70;;
4700;SDS011;8724;51.272;6.554;2023-02-18T15:56:31;4.03;;;2.90;;
4700;SDS011;8724;51.272;6.554;2023-02-18T15:59:09;5.87;;;3.10;;
4700;SDS011;8724;51.272;6.554;2023-02-18T16:01:46;6.40;;;3.37;;
4700;SDS011;8724;51.272;6.554;2023-02-18T16:04:18;4.07;;;3.20;;
4700;SDS011;8724;51.272;6.554;2023-02-18T16:06:48;3.17;;;2.77;;
4700;SDS011;8724;51.272;6.554;2023-02-18T16:09:18;3.53;;;2.90;;
4700;SDS011;8724;51.272;6.554;2023-02-18T16:11:50;6.43;;;3.80;;
4700;SDS011;8724;51.272;6.554;2023-02-18T16:14:26;3.17;;;2.80;;
4700;SDS011;8724;51.272;6.554;2023-02-18T16:17:03;5.27;;;3.53;;
4700;SDS011;8724;51.272;6.554;2023-02-18T16:19:36;3.57;;;2.97;;
4700;SDS011;8724;51.272;6.554;2023-02-18T16:22:31;8.73;;;3.10;;
4700;SDS011;8724;51.272;6.554;2023-02-18T16:25:06;3.77;;;2.63;;
4700;SDS011;8724;51.272;6.554;2023-02-18T16:27:46;5.30;;;2.70;;
4700;SDS011;8724;51.272;6.554;2023-02-18T16:30:17;2.57;;;2.37;;
4700;SDS011;8724;51.272;6.554;2023-02-18T16:32:47;6.83;;;3.10;;